Time;durP1;ratioP1;P1;durP2;ratioP2;P2;SDS_P1;SDS_P2;PMS_P1;PMS_P2;Temp;Humidity;BMP_temperature;BMP_pressure;BME280_temperature;BME280_humidity;BME280_pressure;Samples;Min_cycle;Max_cycle;Signal;HPM_P1;HPM_P2
2023/08/08 00:01:17;;;;;;;;;;;;;;;20.71;47.94;95903.69;10441449;28;2096;-67
2023/08/08 00:06:17;;;;;;;;;;;;;;;20.70;48.08;95893.44;10474054;28;1928;-67
2023/08/08 00:11:18;;;;;;;;;;;;;;;20.69;48.12;95891.88;10445630;28;2292;-68
2023/08/08 00:16:18;;;;;;;;;;;;;;;20.68;48.05;95888.44;10441507;28;2008;-67
2023/08/08 00:21:18;;;;;;;;;;;;;;;20.68;47.54;95888.44;10444821;28;2183;-67
2023/08/08 00:26:18;;;;;;;;;;;;;;;20.68;47.87;95883.19;10435127;28;2116;-67
2023/08/08 00:31:19;;;;;;;;;;;;;;;20.67;47.55;95884.22;10437693;28;1987;-67
2023/08/08 00:36:19;;;;;;;;;;;;;;;20.68;47.47;95877.13;10451392;28;1942;-67
2023/08/08 00:41:20;;;;;;;;;;;;;;;20.67;47.60;95875.56;10450215;28;4520;-67
2023/08/08 00:46:20;;;;;;;;;;;;;;;20.66;47.41;95880.03;10439771;28;1862;-67
2023/08/08 00:51:20;;;;;;;;;;;;;;;20.65;47.37;95875.81;10437724;28;1906;-68
2023/08/08 00:56:21;;;;;;;;;;;;;;;20.66;47.69;95871.34;10446551;28;1957;-67
2023/08/08 01:01:21;;;;;;;;;;;;;;;20.64;47.34;95866.34;10471653;28;1913;-67
2023/08/08 01:06:33;;;;;;;;;;;;;;;20.62;47.25;95860.56;10437254;28;1937;-67
2023/08/08 01:11:34;;;;;;;;;;;;;;;20.64;47.63;95873.47;10433489;28;2019;-67
2023/08/08 01:16:34;;;;;;;;;;;;;;;20.64;47.20;95873.47;10439621;28;1873;-67
2023/08/08 01:21:35;;;;;;;;;;;;;;;20.62;47.35;95868.47;10445271;28;1951;-68
2023/08/08 01:26:35;;;;;;;;;;;;;;;20.62;46.77;95863.19;10439766;28;2052;-67
2023/08/08 01:31:35;;;;;;;;;;;;;;;20.61;47.21;95856.34;10460810;28;2001;-68
2023/08/08 01:36:39;;;;;;;;;;;;;;;20.61;47.36;95861.59;10439208;28;2242;-66
2023/08/08 01:41:39;;;;;;;;;;;;;;;20.61;46.96;95852.94;10444822;28;4568;-67
2023/08/08 01:46:40;;;;;;;;;;;;;;;20.60;46.84;95852.16;10445591;28;1906;-67
2023/08/08 01:51:40;;;;;;;;;;;;;;;20.60;47.04;95849.50;10440552;28;2109;-68
2023/08/08 01:56:40;;;;;;;;;;;;;;;20.60;47.00;95848.72;10444351;28;2103;-68
2023/08/08 02:01:40;;;;;;;;;;;;;;;20.59;46.91;95847.91;10450103;28;1943;-67
2023/08/08 02:06:41;;;;;;;;;;;;;;;20.59;47.20;95842.66;10452827;28;2293;-68
2023/08/08 02:11:41;;;;;;;;;;;;;;;20.58;46.79;95833.19;10445524;28;2136;-68
2023/08/08 02:16:42;;;;;;;;;;;;;;;20.58;46.42;95830.56;10451928;28;1870;-67
2023/08/08 02:21:42;;;;;;;;;;;;;;;20.57;46.97;95823.72;10459157;28;1989;-69
2023/08/08 02:26:43;;;;;;;;;;;;;;;20.56;47.03;95822.16;10452960;28;2072;-68
2023/08/08 02:31:43;;;;;;;;;;;;;;;20.56;46.57;95827.41;10447704;28;2009;-68
2023/08/08 02:36:44;;;;;;;;;;;;;;;20.56;46.72;95819.50;10445653;28;1913;-68
2023/08/08 02:41:44;;;;;;;;;;;;;;;20.56;46.49;95826.63;10455949;28;4529;-69
2023/08/08 02:46:44;;;;;;;;;;;;;;;20.55;46.43;95820.56;10449814;28;1917;-69
2023/08/08 02:51:44;;;;;;;;;;;;;;;20.54;46.38;95819.00;10447557;28;2006;-67
2023/08/08 02:56:45;;;;;;;;;;;;;;;20.53;46.50;95825.31;10444540;28;2239;-66
2023/08/08 03:01:46;;;;;;;;;;;;;;;20.53;46.31;95822.66;10448316;28;2268;-68
2023/08/08 03:06:46;;;;;;;;;;;;;;;20.53;46.30;95833.22;10448716;28;1978;-67
2023/08/08 03:11:47;;;;;;;;;;;;;;;20.53;46.11;95832.41;10443988;28;1942;-68
2023/08/08 03:16:47;;;;;;;;;;;;;;;20.53;46.33;95832.41;10449412;28;1838;-70
2023/08/08 03:21:47;;;;;;;;;;;;;;;20.52;46.46;95826.38;10441441;28;1965;-70
2023/08/08 03:26:48;;;;;;;;;;;;;;;20.51;46.19;95827.44;10446258;28;2085;-67
2023/08/08 03:31:48;;;;;;;;;;;;;;;20.51;46.04;95822.16;10454319;28;1895;-67
2023/08/08 03:36:48;;;;;;;;;;;;;;;20.52;46.26;95822.94;10451408;28;1449;-67
2023/08/08 03:41:48;;;;;;;;;;;;;;;20.50;46.17;95815.34;10455969;28;4517;-67
2023/08/08 03:46:49;;;;;;;;;;;;;;;20.50;45.96;95817.16;10449597;28;1610;-67
2023/08/08 03:51:50;;;;;;;;;;;;;;;20.50;46.45;95823.22;10453618;28;1906;-67
2023/08/08 03:56:50;;;;;;;;;;;;;;;20.49;46.04;95819.00;10451677;28;2282;-67
2023/08/08 04:01:50;;;;;;;;;;;;;;;20.49;45.99;95826.91;10453124;28;1494;-66
2023/08/08 04:06:50;;;;;;;;;;;;;;;20.48;46.15;95830.63;10466697;28;1443;-66
2023/08/08 04:11:51;;;;;;;;;;;;;;;20.48;46.11;95830.63;10458286;28;1967;-67
2023/08/08 04:16:51;;;;;;;;;;;;;;;20.47;46.01;95834.28;10447641;28;1725;-66
2023/08/08 04:21:51;;;;;;;;;;;;;;;20.48;46.20;95829.81;10453483;28;1763;-67
2023/08/08 04:26:52;;;;;;;;;;;;;;;20.47;46.13;95836.94;10451734;28;1854;-67
2023/08/08 04:31:52;;;;;;;;;;;;;;;20.47;46.12;95838.75;10453327;28;1985;-67
2023/08/08 04:36:52;;;;;;;;;;;;;;;20.46;46.00;95837.19;10455480;28;1472;-67
2023/08/08 04:41:52;;;;;;;;;;;;;;;20.46;46.20;95843.25;10451034;28;4682;-67
2023/08/08 04:46:53;;;;;;;;;;;;;;;20.44;46.24;95834.84;10455929;28;1552;-67
2023/08/08 04:51:54;;;;;;;;;;;;;;;20.45;46.02;95831.16;10462452;28;1917;-69
2023/08/08 04:56:54;;;;;;;;;;;;;;;20.45;46.21;95830.34;10449305;28;2506;-68
2023/08/08 05:01:54;;;;;;;;;;;;;;;20.45;46.20;95833.78;10448121;28;1828;-68
2023/08/08 05:06:54;;;;;;;;;;;;;;;20.44;46.28;95842.75;10452197;28;1475;-67
2023/08/08 05:11:55;;;;;;;;;;;;;;;20.45;46.01;95840.88;10447463;28;1914;-68
2023/08/08 05:16:55;;;;;;;;;;;;;;;20.43;46.20;95841.16;10447035;28;1429;-67
2023/08/08 05:21:55;;;;;;;;;;;;;;;20.43;45.96;95833.25;10447545;28;1846;-64
2023/08/08 05:26:56;;;;;;;;;;;;;;;20.42;46.23;95829.06;10482943;28;1440;-64
2023/08/08 05:31:56;;;;;;;;;;;;;;;20.41;45.88;95832.75;10459486;28;1910;-68
2023/08/08 05:36:56;;;;;;;;;;;;;;;20.43;46.37;95833.25;10457481;28;1740;-68
2023/08/08 05:41:56;;;;;;;;;;;;;;;20.42;46.03;95829.06;10469028;28;4692;-67
2023/08/08 05:46:57;;;;;;;;;;;;;;;20.41;46.15;95827.47;10476175;28;1511;-67
2023/08/08 05:51:57;;;;;;;;;;;;;;;20.41;46.15;95824.84;10459854;28;1913;-67
2023/08/08 05:56:57;;;;;;;;;;;;;;;20.41;46.37;95832.75;10460770;28;1707;-68
2023/08/08 06:01:58;;;;;;;;;;;;;;;20.41;45.97;95832.75;10466752;28;1891;-67
2023/08/08 06:06:59;;;;;;;;;;;;;;;20.40;46.10;95831.19;10454319;28;1538;-66
2023/08/08 06:11:59;;;;;;;;;;;;;;;20.42;45.99;95838.81;10473672;28;1946;-68
2023/08/08 06:16:59;;;;;;;;;;;;;;;20.41;46.10;95843.28;10463407;28;1555;-66
2023/08/08 06:22:00;;;;;;;;;;;;;;;20.40;46.23;95833.81;10458669;28;1650;-67
2023/08/08 06:27:00;;;;;;;;;;;;;;;20.41;46.08;95831.94;10465251;28;1614;-67
2023/08/08 06:32:00;;;;;;;;;;;;;;;20.40;45.94;95833.03;10465038;28;1973;-67
2023/08/08 06:37:00;;;;;;;;;;;;;;;20.41;45.95;95824.03;10458437;28;1420;-67
2023/08/08 06:42:01;;;;;;;;;;;;;;;20.39;46.17;95829.59;10461787;28;1473;-67
2023/08/08 06:47:01;;;;;;;;;;;;;;;20.40;46.24;95833.03;10452338;28;2319;-67
2023/08/08 06:52:01;;;;;;;;;;;;;;;20.38;46.73;95837.78;10456888;28;1961;-67
2023/08/08 06:57:02;;;;;;;;;;;;;;;20.39;46.23;95823.53;10458781;28;1791;-67
2023/08/08 07:02:02;;;;;;;;;;;;;;;20.38;46.14;95820.09;10461488;28;1489;-66
2023/08/08 07:07:02;;;;;;;;;;;;;;;20.39;47.12;95823.53;10463632;28;1775;-65
2023/08/08 07:12:03;;;;;;;;;;;;;;;20.40;46.72;95819.84;10457495;28;1984;-66
2023/08/08 07:17:03;;;;;;;;;;;;;;;20.40;47.41;95822.50;10461533;28;1504;-66
2023/08/08 07:22:04;;;;;;;;;;;;;;;20.40;47.03;95823.28;10463383;28;1542;-67
2023/08/08 07:27:04;;;;;;;;;;;;;;;20.39;47.21;95816.44;10455427;28;1455;-65
2023/08/08 07:32:04;;;;;;;;;;;;;;;20.40;47.05;95828.53;10465631;28;1973;-65
2023/08/08 07:37:05;;;;;;;;;;;;;;;20.39;47.35;95820.91;10453968;28;1391;-66
2023/08/08 07:42:05;;;;;;;;;;;;;;;20.41;47.55;95819.56;10455273;28;4434;-66
2023/08/08 07:47:05;;;;;;;;;;;;;;;20.42;47.91;95818.53;10460080;28;1495;-67
2023/08/08 07:52:06;;;;;;;;;;;;;;;20.43;48.06;95811.41;10463522;28;1898;-68
2023/08/08 07:57:07;;;;;;;;;;;;;;;20.43;48.36;95804.28;10454944;28;1501;-67
2023/08/08 08:02:07;;;;;;;;;;;;;;;20.45;48.52;95804.81;10460868;28;1510;-68
2023/08/08 08:07:08;;;;;;;;;;;;;;;20.45;48.71;95793.47;10463008;28;1507;-67
2023/08/08 08:12:08;;;;;;;;;;;;;;;20.46;48.74;95793.25;10459601;28;1910;-67
2023/08/08 08:17:08;;;;;;;;;;;;;;;20.47;48.85;95788.72;10465652;28;1892;-68
2023/08/08 08:22:09;;;;;;;;;;;;;;;20.47;48.60;95786.91;10456022;28;1476;-67
2023/08/08 08:27:09;;;;;;;;;;;;;;;20.48;48.94;95785.06;10454089;28;1534;-68
2023/08/08 08:32:09;;;;;;;;;;;;;;;20.50;48.98;95788.22;10455563;28;1910;-67
2023/08/08 08:37:10;;;;;;;;;;;;;;;20.48;48.91;95783.22;10450240;28;1740;-67
2023/08/08 08:42:11;;;;;;;;;;;;;;;20.52;49.26;95780.81;10451701;28;1540;-67
2023/08/08 08:47:12;;;;;;;;;;;;;;;20.51;48.88;95776.59;10452838;28;1518;-67
2023/08/08 08:52:12;;;;;;;;;;;;;;;20.50;49.12;95765.31;10454230;28;1906;-67
2023/08/08 08:57:12;;;;;;;;;;;;;;;20.51;48.79;95753.69;10465305;28;1612;-67
2023/08/08 09:02:13;;;;;;;;;;;;;;;20.50;48.89;95773.19;10485180;28;1350;-67
2023/08/08 09:07:13;;;;;;;;;;;;;;;20.52;49.29;95765.03;10469982;28;1375;-67
2023/08/08 09:12:13;;;;;;;;;;;;;;;20.53;49.12;95754.22;10473719;28;2011;-66
2023/08/08 09:17:14;;;;;;;;;;;;;;;20.53;49.17;95759.47;10473415;28;1527;-66
2023/08/08 09:22:14;;;;;;;;;;;;;;;20.52;49.08;95752.66;10464163;28;2120;-67
2023/08/08 09:27:14;;;;;;;;;;;;;;;20.52;48.93;95768.44;10469807;28;1443;-66
2023/08/08 09:32:17;;;;;;;;;;;;;;;20.53;49.23;95756.84;10462944;28;1906;-68
2023/08/08 09:37:20;;;;;;;;;;;;;;;20.54;49.51;95744.47;10470046;28;2375;-65
2023/08/08 09:42:20;;;;;;;;;;;;;;;20.52;49.19;95744.75;10473957;28;4542;-65
2023/08/08 09:47:21;;;;;;;;;;;;;;;20.52;49.15;95742.13;10467039;28;1498;-66
2023/08/08 09:52:21;;;;;;;;;;;;;;;20.53;49.34;95733.13;10462692;28;1972;-66
2023/08/08 09:57:25;;;;;;;;;;;;;;;20.55;49.20;95736.28;10500657;28;1663;-66
2023/08/08 10:02:26;;;;;;;;;;;;;;;20.54;49.53;95734.72;10472429;28;1447;-66
2023/08/08 10:07:26;;;;;;;;;;;;;;;20.54;49.80;95732.09;10470365;28;1578;-66
2023/08/08 10:12:27;;;;;;;;;;;;;;;20.56;49.98;95734.44;10458644;28;1977;-66
2023/08/08 10:17:27;;;;;;;;;;;;;;;20.55;49.96;95728.38;10465160;28;1562;-66
2023/08/08 10:22:28;;;;;;;;;;;;;;;20.58;49.86;95732.31;10464068;28;1447;-66
2023/08/08 10:27:35;;;;;;;;;;;;;;;20.57;49.73;95734.16;10462164;28;1770;-65
2023/08/08 10:32:46;;;;;;;;;;;;;;;20.58;49.89;95730.50;10460232;28;2276;-65
2023/08/08 10:37:53;;;;;;;;;;;;;;;20.58;50.11;95729.69;10458084;28;1602;-65
2023/08/08 10:42:53;;;;;;;;;;;;;;;20.59;49.77;95721.50;10456655;28;4710;-66
2023/08/08 10:47:53;;;;;;;;;;;;;;;20.58;49.99;95725.22;10452190;28;1498;-66
2023/08/08 10:52:54;;;;;;;;;;;;;;;20.60;49.87;95717.84;10470293;28;1906;-67
2023/08/08 10:57:56;;;;;;;;;;;;;;;20.60;49.69;95714.41;10456869;28;1632;-66
2023/08/08 11:02:56;;;;;;;;;;;;;;;20.60;50.20;95712.56;10491053;28;1530;-66
2023/08/08 11:07:57;;;;;;;;;;;;;;;20.61;50.08;95716.00;10461638;28;1356;-65
2023/08/08 11:13:01;;;;;;;;;;;;;;;20.61;50.01;95708.09;10458084;28;1983;-66
2023/08/08 11:18:01;;;;;;;;;;;;;;;20.62;50.03;95699.91;10461335;28;1538;-65
2023/08/08 11:23:03;;;;;;;;;;;;;;;20.63;49.84;95705.97;10457226;28;1613;-65
2023/08/08 11:28:04;;;;;;;;;;;;;;;20.62;49.72;95693.84;10453839;28;2347;-65
2023/08/08 11:33:04;;;;;;;;;;;;;;;20.62;49.82;95693.84;10452447;28;1985;-66
2023/08/08 11:38:04;;;;;;;;;;;;;;;20.63;50.05;95704.09;10455130;28;1634;-66
2023/08/08 11:43:05;;;;;;;;;;;;;;;20.63;50.08;95690.94;10456756;28;4545;-66
2023/08/08 11:48:05;;;;;;;;;;;;;;;20.64;50.25;95689.09;10453114;28;1545;-66
2023/08/08 11:53:06;;;;;;;;;;;;;;;20.65;50.38;95675.63;10450299;28;1965;-65
2023/08/08 11:58:06;;;;;;;;;;;;;;;20.65;50.62;95666.97;10454964;28;1743;-65
2023/08/08 12:03:07;;;;;;;;;;;;;;;20.65;50.50;95678.28;10449623;28;1791;-65
2023/08/08 12:08:07;;;;;;;;;;;;;;;20.65;50.20;95662.47;10450550;28;1839;-65
2023/08/08 12:13:07;;;;;;;;;;;;;;;20.65;49.92;95670.38;10462829;28;1975;-65
2023/08/08 12:18:08;;;;;;;;;;;;;;;20.66;49.96;95661.41;10461407;28;1466;-65
2023/08/08 12:23:08;;;;;;;;;;;;;;;20.66;49.68;95663.25;10455654;28;1858;-66
2023/08/08 12:28:08;;;;;;;;;;;;;;;20.65;49.86;95662.47;10453511;28;1870;-65
2023/08/08 12:33:08;;;;;;;;;;;;;;;20.66;49.62;95668.53;10442259;28;1906;-66
2023/08/08 12:38:10;;;;;;;;;;;;;;;20.65;49.75;95666.97;10444434;28;1857;-65
2023/08/08 12:43:13;;;;;;;;;;;;;;;20.65;49.57;95662.47;10444024;28;4561;-66
2023/08/08 12:48:13;;;;;;;;;;;;;;;20.63;49.59;95651.44;10446858;28;2072;-65
2023/08/08 12:53:13;;;;;;;;;;;;;;;20.65;49.49;95661.72;10445764;28;2093;-65
2023/08/08 12:58:13;;;;;;;;;;;;;;;20.65;49.50;95665.09;10448634;28;2083;-65
2023/08/08 13:03:14;;;;;;;;;;;;;;;20.66;49.69;95665.91;10443070;28;2066;-66
2023/08/08 13:08:14;;;;;;;;;;;;;;;20.66;49.60;95656.16;10438209;28;1979;-66
2023/08/08 13:13:15;;;;;;;;;;;;;;;20.65;49.35;95649.31;10442671;28;2096;-66
2023/08/08 13:18:15;;;;;;;;;;;;;;;20.65;49.47;95657.19;10447590;28;1885;-65
2023/08/08 13:23:16;;;;;;;;;;;;;;;20.66;49.62;95652.72;10445273;28;2238;-66
2023/08/08 13:28:16;;;;;;;;;;;;;;;20.67;49.70;95654.31;10442704;28;1861;-64
2023/08/08 13:33:16;;;;;;;;;;;;;;;20.66;49.56;95648.25;10440179;28;1947;-65
2023/08/08 13:38:16;;;;;;;;;;;;;;;20.67;49.34;95643.78;10444755;28;2054;-65
2023/08/08 13:43:17;;;;;;;;;;;;;;;20.67;49.12;95628.75;10448682;28;4493;-61
2023/08/08 13:48:17;;;;;;;;;;;;;;;20.68;42.58;95640.06;10448730;28;1874;-67
2023/08/08 13:53:17;;;;;;;;;;;;;;;20.57;39.02;95635.94;10455284;28;2008;-67
2023/08/08 13:58:21;;;;;;;;;;;;;;;20.48;38.57;95629.72;10455817;28;1997;-67
2023/08/08 14:03:22;;;;;;;;;;;;;;;20.42;40.91;95631.59;10442480;28;2115;-67
2023/08/08 14:08:22;;;;;;;;;;;;;;;20.43;42.10;95629.72;10450764;28;1946;-67
2023/08/08 14:13:22;;;;;;;;;;;;;;;20.46;43.00;95624.72;10456115;28;2035;-66
2023/08/08 14:18:22;;;;;;;;;;;;;;;20.47;43.93;95615.75;10449101;28;2376;-67
2023/08/08 14:23:23;;;;;;;;;;;;;;;20.50;44.19;95620.47;10443579;28;1945;-66
2023/08/08 14:28:23;;;;;;;;;;;;;;;20.51;44.77;95614.13;10451827;28;1952;-66
2023/08/08 14:33:23;;;;;;;;;;;;;;;20.54;44.98;95618.06;10448951;28;1910;-67
2023/08/08 14:38:24;;;;;;;;;;;;;;;20.55;45.27;95615.16;10452364;28;2097;-66
2023/08/08 14:43:24;;;;;;;;;;;;;;;20.57;45.27;95613.03;10449535;28;4633;-66
2023/08/08 14:48:24;;;;;;;;;;;;;;;20.59;45.57;95610.91;10451785;28;1879;-67
2023/08/08 14:53:25;;;;;;;;;;;;;;;20.59;45.64;95616.16;10449976;28;2057;-66
2023/08/08 14:58:25;;;;;;;;;;;;;;;20.60;45.85;95611.69;10446091;28;1937;-67
2023/08/08 15:03:25;;;;;;;;;;;;;;;20.62;46.25;95613.00;10447751;28;1930;-66
2023/08/08 15:08:26;;;;;;;;;;;;;;;20.64;46.15;95623.25;10449373;28;1830;-67
2023/08/08 15:13:26;;;;;;;;;;;;;;;20.63;46.44;95622.47;10457417;28;1971;-66
2023/08/08 15:18:27;;;;;;;;;;;;;;;20.64;46.61;95616.13;10447958;28;1960;-66
2023/08/08 15:23:27;;;;;;;;;;;;;;;20.65;46.53;95612.44;10456113;28;1941;-65
2023/08/08 15:28:27;;;;;;;;;;;;;;;20.65;46.90;95615.06;10453296;28;1877;-66
2023/08/08 15:33:28;;;;;;;;;;;;;;;20.64;46.87;95613.50;10450387;28;1917;-65
2023/08/08 15:38:28;;;;;;;;;;;;;;;20.65;46.74;95615.06;10446610;28;1932;-65
2023/08/08 15:43:28;;;;;;;;;;;;;;;20.67;47.05;95612.94;10453567;28;1890;-65
2023/08/08 15:48:29;;;;;;;;;;;;;;;20.67;47.02;95618.22;10447482;28;1897;-65
2023/08/08 15:53:30;;;;;;;;;;;;;;;20.69;47.29;95623.97;10439891;28;1922;-66
2023/08/08 15:58:30;;;;;;;;;;;;;;;20.69;47.43;95623.22;10437194;28;1936;-65
2023/08/08 16:03:30;;;;;;;;;;;;;;;20.69;47.10;95623.97;10451772;28;1866;-66
2023/08/08 16:08:30;;;;;;;;;;;;;;;20.68;47.13;95619.78;10443097;28;2395;-65
2023/08/08 16:13:31;;;;;;;;;;;;;;;20.70;47.09;95622.13;10476420;28;1942;-66
2023/08/08 16:18:31;;;;;;;;;;;;;;;20.68;47.47;95622.41;10436713;28;1919;-65
2023/08/08 16:23:31;;;;;;;;;;;;;;;20.69;47.29;95623.97;10438010;28;1901;-68
2023/08/08 16:28:32;;;;;;;;;;;;;;;20.71;47.58;95619.22;10477147;28;1953;-68
2023/08/08 16:33:32;;;;;;;;;;;;;;;20.71;47.96;95615.81;10446060;28;1914;-68
2023/08/08 16:38:32;;;;;;;;;;;;;;;20.73;48.02;95617.09;10453047;28;1870;-67
2023/08/08 16:43:36;;;;;;;;;;;;;;;20.76;48.25;95621.03;10440014;28;4548;-66
2023/08/08 16:48:36;;;;;;;;;;;;;;;20.77;48.40;95631.28;10443980;28;2010;-65
2023/08/08 16:53:36;;;;;;;;;;;;;;;20.77;48.69;95628.66;10472629;28;2033;-64
2023/08/08 16:58:39;;;;;;;;;;;;;;;20.79;48.78;95639.69;10445457;28;1878;-66
2023/08/08 17:03:39;;;;;;;;;;;;;;;20.82;48.79;95635.72;10433344;28;2252;-63
2023/08/08 17:08:39;;;;;;;;;;;;;;;20.81;49.25;95640.19;10442361;28;2030;-63
2023/08/08 17:13:40;;;;;;;;;;;;;;;20.81;49.13;95639.44;10438768;28;1945;-63
2023/08/08 17:18:40;;;;;;;;;;;;;;;20.80;49.28;95651.81;10442603;28;1916;-62
2023/08/08 17:23:40;;;;;;;;;;;;;;;20.81;49.18;95652.59;10451690;28;1916;-62
2023/08/08 17:28:40;;;;;;;;;;;;;;;20.81;49.40;95649.97;10449862;28;1886;-62
2023/08/08 17:33:41;;;;;;;;;;;;;;;20.80;49.21;95657.09;10452131;28;1909;-61
2023/08/08 17:38:41;;;;;;;;;;;;;;;20.80;49.46;95651.81;10451900;28;1892;-67
2023/08/08 17:43:41;;;;;;;;;;;;;;;20.80;47.87;95656.28;10450471;28;4622;-68
2023/08/08 17:48:41;;;;;;;;;;;;;;;20.77;48.68;95660.25;10453634;28;1889;-67
2023/08/08 17:53:42;;;;;;;;;;;;;;;20.78;48.79;95666.31;10449234;28;2081;-68
2023/08/08 17:58:44;;;;;;;;;;;;;;;20.78;48.84;95677.66;10449346;28;1900;-70
2023/08/08 18:03:44;;;;;;;;;;;;;;;20.77;48.90;95681.34;10450360;28;2288;-76
2023/08/08 18:08:44;;;;;;;;;;;;;;;20.77;48.83;95678.69;10456040;28;1866;-68
2023/08/08 18:13:45;;;;;;;;;;;;;;;20.77;49.02;95678.69;10455159;28;1969;-67
2023/08/08 18:18:45;;;;;;;;;;;;;;;20.75;48.65;95678.19;10451694;28;1818;-67
2023/08/08 18:23:45;;;;;;;;;;;;;;;20.75;48.93;95678.19;10448567;28;1857;-67
2023/08/08 18:28:45;;;;;;;;;;;;;;;20.76;48.58;95690.31;10452765;28;1866;-68
2023/08/08 18:33:46;;;;;;;;;;;;;;;20.74;48.80;95681.91;10439781;28;1975;-69
2023/08/08 18:38:46;;;;;;;;;;;;;;;20.74;48.73;95687.16;10443714;28;1846;-66
2023/08/08 18:43:46;;;;;;;;;;;;;;;20.79;49.66;95688.97;10448814;28;4584;-66
2023/08/08 18:48:47;;;;;;;;;;;;;;;20.78;49.75;95692.66;10448148;28;1830;-66
2023/08/08 18:53:47;;;;;;;;;;;;;;;20.79;49.78;95702.91;10443711;28;1910;-67
2023/08/08 18:58:47;;;;;;;;;;;;;;;20.78;49.96;95708.47;10451918;28;2274;-66
2023/08/08 19:03:47;;;;;;;;;;;;;;;20.79;49.97;95710.81;10445331;28;1823;-67
2023/08/08 19:08:49;;;;;;;;;;;;;;;20.79;50.06;95721.34;10448130;28;1912;-67
2023/08/08 19:13:50;;;;;;;;;;;;;;;20.81;50.31;95721.09;10448019;28;1913;-67
2023/08/08 19:18:50;;;;;;;;;;;;;;;20.80;50.32;95722.94;10454389;28;1818;-67
2023/08/08 19:23:51;;;;;;;;;;;;;;;20.81;50.19;95718.47;10447541;28;1870;-68
2023/08/08 19:28:51;;;;;;;;;;;;;;;20.81;50.14;95729.00;10451846;28;1598;-66
2023/08/08 19:33:52;;;;;;;;;;;;;;;20.80;49.86;95722.16;10452400;28;1922;-63
2023/08/08 19:38:52;;;;;;;;;;;;;;;20.78;49.81;95724.28;10451621;28;1689;-66
2023/08/08 19:43:52;;;;;;;;;;;;;;;20.78;49.65;95729.53;10445952;28;1812;-63
2023/08/08 19:48:53;;;;;;;;;;;;;;;20.77;49.71;95731.38;10455183;28;1475;-63
2023/08/08 19:53:53;;;;;;;;;;;;;;;20.77;49.70;95728.75;10449891;28;2355;-63
2023/08/08 19:58:54;;;;;;;;;;;;;;;20.76;49.73;95735.09;10451064;28;1763;-63
2023/08/08 20:03:54;;;;;;;;;;;;;;;20.74;49.69;95723.25;10451803;28;1429;-62
2023/08/08 20:08:54;;;;;;;;;;;;;;;20.75;49.86;95719.56;10450517;28;1759;-62
2023/08/08 20:13:55;;;;;;;;;;;;;;;20.74;49.74;95712.72;10449768;28;1969;-61
2023/08/08 20:18:55;;;;;;;;;;;;;;;20.74;49.70;95717.97;10450591;28;1487;-62
2023/08/08 20:23:55;;;;;;;;;;;;;;;20.74;49.56;95723.25;10449104;28;1513;-62
2023/08/08 20:28:56;;;;;;;;;;;;;;;20.73;49.56;95722.47;10448885;28;1897;-61
2023/08/08 20:33:56;;;;;;;;;;;;;;;20.73;49.42;95713.78;10467456;28;1964;-64
2023/08/08 20:38:57;;;;;;;;;;;;;;;20.71;49.76;95716.69;10443908;28;1797;-66
2023/08/08 20:43:57;;;;;;;;;;;;;;;20.71;49.65;95724.59;10449213;28;4498;-63
2023/08/08 20:48:57;;;;;;;;;;;;;;;20.72;49.60;95730.66;10445195;28;2385;-63
2023/08/08 20:53:58;;;;;;;;;;;;;;;20.74;50.28;95729.31;10444588;28;1914;-67
2023/08/08 20:58:58;;;;;;;;;;;;;;;20.78;51.33;95724.28;10458077;28;1678;-67
2023/08/08 21:03:58;;;;;;;;;;;;;;;20.80;52.36;95732.69;10456651;28;1471;-67
2023/08/08 21:08:58;;;;;;;;;;;;;;;20.83;52.75;95725.03;10457248;28;1791;-67
2023/08/08 21:13:59;;;;;;;;;;;;;;;20.85;52.84;95730.81;10490185;28;1909;-68
2023/08/08 21:18:59;;;;;;;;;;;;;;;20.86;52.72;95721.84;10450931;28;1783;-67
2023/08/08 21:23:59;;;;;;;;;;;;;;;20.87;52.88;95726.06;10454012;28;1501;-68
2023/08/08 21:28:59;;;;;;;;;;;;;;;20.88;52.86;95717.09;10451828;28;1479;-67
2023/08/08 21:34:00;;;;;;;;;;;;;;;20.88;52.59;95713.66;10454370;28;1973;-67
2023/08/08 21:39:00;;;;;;;;;;;;;;;20.87;52.59;95718.16;10448351;28;1511;-66
2023/08/08 21:44:00;;;;;;;;;;;;;;;20.86;52.81;95715.78;10452804;28;4462;-67
2023/08/08 21:49:01;;;;;;;;;;;;;;;20.85;52.45;95715.00;10448921;28;2536;-67
2023/08/08 21:54:01;;;;;;;;;;;;;;;20.83;52.41;95711.06;10454432;28;1918;-68
2023/08/08 21:59:01;;;;;;;;;;;;;;;20.83;52.50;95711.88;10452137;28;1650;-68
2023/08/08 22:04:02;;;;;;;;;;;;;;;20.83;52.56;95711.06;10454034;28;1521;-68
2023/08/08 22:09:02;;;;;;;;;;;;;;;20.81;52.44;95713.97;10466819;28;1458;-66
2023/08/08 22:14:03;;;;;;;;;;;;;;;20.80;52.26;95701.88;10464750;28;1905;-67
2023/08/08 22:19:03;;;;;;;;;;;;;;;20.80;52.52;95696.59;10461318;28;1800;-68
2023/08/08 22:24:03;;;;;;;;;;;;;;;20.79;52.23;95699.53;10461466;28;1455;-67
2023/08/08 22:29:04;;;;;;;;;;;;;;;20.78;52.00;95693.47;10465444;28;1795;-68
2023/08/08 22:34:04;;;;;;;;;;;;;;;20.78;51.98;95695.28;10457394;28;1914;-68
2023/08/08 22:39:04;;;;;;;;;;;;;;;20.76;51.92;95692.94;10463139;28;1460;-68
2023/08/08 22:44:04;;;;;;;;;;;;;;;20.76;52.16;95695.59;10457387;28;4689;-67
2023/08/08 22:49:05;;;;;;;;;;;;;;;20.75;51.70;95698.50;10460675;28;1577;-67
2023/08/08 22:54:05;;;;;;;;;;;;;;;20.75;51.83;95695.88;10461745;28;1959;-68
2023/08/08 22:59:05;;;;;;;;;;;;;;;20.73;51.68;95693.47;10455809;28;1800;-68
2023/08/08 23:04:06;;;;;;;;;;;;;;;20.74;51.85;95687.16;10458728;28;1914;-68
2023/08/08 23:09:07;;;;;;;;;;;;;;;20.73;51.40;95688.22;10458838;28;1804;-68
2023/08/08 23:14:07;;;;;;;;;;;;;;;20.73;51.46;95685.59;10461987;28;1892;-67
2023/08/08 23:19:08;;;;;;;;;;;;;;;20.72;51.59;95681.38;10454091;28;1625;-67
2023/08/08 23:24:08;;;;;;;;;;;;;;;20.72;51.43;95680.59;10455294;28;1547;-69
2023/08/08 23:29:09;;;;;;;;;;;;;;;20.71;51.42;95679.03;10452154;28;1459;-67
2023/08/08 23:34:09;;;;;;;;;;;;;;;20.71;51.64;95682.44;10465231;28;1914;-68
2023/08/08 23:39:10;;;;;;;;;;;;;;;20.71;51.25;95677.16;10456667;28;2217;-68
2023/08/08 23:44:10;;;;;;;;;;;;;;;20.70;51.53;95670.34;10451412;28;1684;-68
2023/08/08 23:49:11;;;;;;;;;;;;;;;20.70;51.50;95664.28;10465941;28;1571;-68
2023/08/08 23:54:12;;;;;;;;;;;;;;;20.70;51.47;95669.56;10456099;28;2018;-66
2023/08/08 23:59:12;;;;;;;;;;;;;;;20.70;51.47;95672.19;10451747;28;1980;-68
